Time;durP1;ratioP1;P1;durP2;ratioP2;P2;SDS_P1;SDS_P2;PMS_P1;PMS_P2;Temp;Humidity;BMP_temperature;BMP_pressure;BME280_temperature;BME280_humidity;BME280_pressure;Samples;Min_cycle;Max_cycle;Signal;HPM_P1;HPM_P2
2020/12/09 00:00:14;;;;;;;61.87;30.00;;;;;;;3.46;71.61;95511.63;5066619;28;20286;-66
2020/12/09 00:02:40;;;;;;;68.37;32.40;;;;;;;3.45;71.71;95520.34;5068207;28;20182;-67
2020/12/09 00:05:09;;;;;;;62.23;30.27;;;;;;;3.51;71.21;95517.19;5061400;28;20265;-65
2020/12/09 00:07:35;;;;;;;71.77;32.50;;;;;;;3.54;71.29;95516.06;5073023;28;20457;-66
2020/12/09 00:10:02;;;;;;;66.07;29.37;;;;;;;3.39;71.71;95515.78;5068753;28;20448;-65
2020/12/09 00:12:31;;;;;;;65.27;31.67;;;;;;;3.59;71.18;95521.59;5057409;28;20463;-70
2020/12/09 00:14:58;;;;;;;67.17;31.70;;;;;;;3.53;70.64;95530.78;5053156;28;20539;-66
2020/12/09 00:17:24;;;;;;;63.00;30.80;;;;;;;3.64;71.27;95528.94;5050625;28;20440;-68
2020/12/09 00:19:50;;;;;;;65.37;30.90;;;;;;;3.83;71.13;95527.94;5050490;28;20851;-67
2020/12/09 00:22:15;;;;;;;63.63;29.43;;;;;;;3.94;70.15;95537.22;5046681;28;20422;-66
2020/12/09 00:24:41;;;;;;;64.77;31.10;;;;;;;3.73;70.63;95535.81;5050643;28;20231;-65
2020/12/09 00:27:07;;;;;;;64.80;30.43;;;;;;;3.62;70.37;95528.25;5065090;28;20179;-67
2020/12/09 00:29:32;;;;;;;64.80;32.43;;;;;;;3.60;70.36;95532.78;5062485;28;20179;-65
2020/12/09 00:31:58;;;;;;;61.73;30.10;;;;;;;3.53;71.36;95538.53;5062292;28;20699;-66
2020/12/09 00:34:24;;;;;;;64.77;31.60;;;;;;;3.53;71.60;95532.56;5073201;28;20211;-64
2020/12/09 00:36:49;;;;;;;66.00;32.73;;;;;;;3.27;72.48;95537.69;5070582;28;20191;-66
2020/12/09 00:39:15;;;;;;;69.07;30.67;;;;;;;3.37;71.79;95539.22;5071761;28;20558;-66
2020/12/09 00:41:41;;;;;;;69.37;31.07;;;;;;;3.51;71.34;95534.47;5072952;28;20197;-66
2020/12/09 00:44:07;;;;;;;65.37;31.63;;;;;;;3.63;71.29;95532.50;5072985;28;20194;-65
2020/12/09 00:46:32;;;;;;;60.77;29.10;;;;;;;3.47;71.35;95538.31;5062900;28;20194;-66
2020/12/09 00:48:58;;;;;;;64.13;31.20;;;;;;;3.53;71.37;95530.78;5072855;28;20199;-66
2020/12/09 00:51:25;;;;;;;66.10;32.47;;;;;;;3.77;70.86;95539.72;5071319;28;20202;-65
2020/12/09 00:53:51;;;;;;;64.67;31.87;;;;;;;3.64;71.05;95528.94;5055830;28;20207;-65
2020/12/09 00:56:17;;;;;;;67.93;32.57;;;;;;;3.46;71.34;95537.53;5056676;28;20932;-66
2020/12/09 00:58:43;;;;;;;59.93;31.53;;;;;;;3.34;72.57;95538.72;5071859;28;20427;-66
2020/12/09 01:01:10;;;;;;;61.47;30.67;;;;;;;3.13;72.76;95533.81;5071920;28;20202;-66
2020/12/09 01:03:36;;;;;;;65.60;32.50;;;;;;;2.86;73.69;95525.13;5072156;28;20178;-66
2020/12/09 01:06:04;;;;;;;72.00;32.97;;;;;;;3.18;73.62;95529.81;5072678;28;20424;-67
2020/12/09 01:08:30;;;;;;;60.33;31.07;;;;;;;3.05;73.52;95529.38;5071235;28;20229;-65
2020/12/09 01:10:56;;;;;;;62.30;29.53;;;;;;;3.32;72.76;95533.69;5071006;28;20453;-66
2020/12/09 01:13:22;;;;;;;66.63;30.80;;;;;;;2.95;74.10;95544.16;5071760;28;20460;-66
2020/12/09 01:15:48;;;;;;;66.93;31.27;;;;;;;3.21;73.89;95542.47;5061393;28;20599;-65
2020/12/09 01:18:14;;;;;;;67.57;31.90;;;;;;;3.02;73.32;95540.03;5067168;28;20206;-65
2020/12/09 01:20:40;;;;;;;70.70;33.20;;;;;;;2.91;74.00;95549.59;5071960;28;20206;-66
2020/12/09 01:23:05;;;;;;;68.27;33.97;;;;;;;2.94;73.96;95553.69;5071815;28;20208;-66
2020/12/09 01:25:31;;;;;;;70.83;32.00;;;;;;;3.06;74.72;95555.13;5073008;28;20919;-67
2020/12/09 01:28:01;;;;;;;68.40;32.47;;;;;;;3.27;73.95;95548.03;5073270;28;20186;-66
2020/12/09 01:30:28;;;;;;;71.47;33.00;;;;;;;3.06;74.41;95542.19;5072647;28;21098;-65
2020/12/09 01:32:55;;;;;;;71.87;33.10;;;;;;;3.23;74.04;95539.72;5067934;28;20464;-66
2020/12/09 01:35:21;;;;;;;69.73;32.50;;;;;;;3.64;73.25;95547.88;5059269;28;20470;-65
2020/12/09 01:37:47;;;;;;;79.33;33.10;;;;;;;3.59;72.31;95557.06;5073232;28;20437;-65
2020/12/09 01:40:13;;;;;;;68.73;30.67;;;;;;;3.84;72.56;95551.09;5072592;28;20288;-65
2020/12/09 01:42:39;;;;;;;73.43;32.67;;;;;;;3.77;72.51;95550.09;5057223;28;20423;-66
2020/12/09 01:45:04;;;;;;;75.20;32.70;;;;;;;3.89;71.42;95558.44;5064635;28;20190;-64
2020/12/09 01:47:30;;;;;;;75.13;33.27;;;;;;;3.27;73.29;95566.16;5073720;28;20178;-65
2020/12/09 01:49:58;;;;;;;73.23;32.17;;;;;;;3.74;72.30;95575.47;5055897;28;20202;-66
2020/12/09 01:52:23;;;;;;;67.93;31.70;;;;;;;3.94;71.18;95581.28;5054208;28;20629;-67
2020/12/09 01:54:52;;;;;;;70.97;30.90;;;;;;;3.95;71.10;95577.75;5072414;28;20417;-66
2020/12/09 01:57:18;;;;;;;67.33;31.10;;;;;;;4.11;70.65;95572.69;5072258;28;20189;-64
2020/12/09 01:59:44;;;;;;;64.63;30.60;;;;;;;4.10;70.72;95563.28;5070231;28;20544;-67
2020/12/09 02:02:09;;;;;;;64.27;33.13;;;;;;;4.10;70.76;95571.06;5065097;28;20180;-66
2020/12/09 02:04:36;;;;;;;67.97;31.17;;;;;;;4.22;70.74;95579.38;5061589;28;20174;-67
2020/12/09 02:07:03;;;;;;;73.13;33.80;;;;;;;4.20;70.55;95580.50;5061626;28;20190;-66
2020/12/09 02:09:29;;;;;;;64.77;29.60;;;;;;;4.26;69.71;95578.13;5058757;28;20444;-66
2020/12/09 02:11:55;;;;;;;67.40;31.13;;;;;;;4.09;70.06;95584.19;5053425;28;20437;-66
2020/12/09 02:14:22;;;;;;;61.90;30.73;;;;;;;4.04;70.85;95589.78;5048978;28;20456;-67
2020/12/09 02:16:49;;;;;;;66.37;31.90;;;;;;;3.89;71.16;95589.53;5065389;28;20816;-66
2020/12/09 02:19:15;;;;;;;73.03;31.50;;;;;;;4.11;70.29;95598.59;5067407;28;20467;-66
2020/12/09 02:21:41;;;;;;;68.37;32.70;;;;;;;3.65;71.82;95597.94;5069867;28;20472;-66
2020/12/09 02:24:06;;;;;;;68.70;31.47;;;;;;;4.14;71.16;95611.28;5071171;28;20721;-66
2020/12/09 02:26:32;;;;;;;68.60;31.23;;;;;;;4.25;70.39;95614.59;5071157;28;20186;-66
2020/12/09 02:28:58;;;;;;;67.37;33.07;;;;;;;4.45;70.25;95616.00;5070189;28;20186;-66
2020/12/09 02:31:23;;;;;;;63.37;30.87;;;;;;;4.13;70.44;95617.44;5070499;28;20735;-65
2020/12/09 02:33:49;;;;;;;59.20;30.90;;;;;;;3.78;71.41;95618.28;5069956;28;20206;-65
2020/12/09 02:36:15;;;;;;;72.17;32.07;;;;;;;3.76;71.52;95626.19;5070737;28;20190;-66
2020/12/09 02:38:41;;;;;;;62.20;30.97;;;;;;;3.89;71.65;95632.78;5070998;28;20186;-64
2020/12/09 02:41:07;;;;;;;65.90;31.40;;;;;;;3.56;72.29;95630.72;5068662;28;20206;-67
2020/12/09 02:43:33;;;;;;;71.30;32.80;;;;;;;3.80;72.74;95627.50;5054278;28;20423;-66
2020/12/09 02:45:59;;;;;;;69.10;31.87;;;;;;;3.90;72.03;95626.66;5059699;28;20198;-65
2020/12/09 02:48:24;;;;;;;67.10;32.27;;;;;;;3.98;71.65;95624.09;5070400;28;20212;-66
2020/12/09 02:50:50;;;;;;;72.20;32.03;;;;;;;3.94;71.62;95623.59;5070660;28;20202;-66
2020/12/09 02:53:16;;;;;;;66.33;32.03;;;;;;;3.85;71.58;95629.66;5070425;28;20202;-66
2020/12/09 02:55:41;;;;;;;70.10;32.77;;;;;;;4.01;72.02;95636.78;5069840;28;20294;-65
2020/12/09 02:58:07;;;;;;;63.17;32.13;;;;;;;4.03;71.12;95637.44;5070767;28;20186;-65
2020/12/09 03:00:32;;;;;;;66.83;32.30;;;;;;;4.32;71.24;95640.72;5071117;28;20206;-66
2020/12/09 03:02:58;;;;;;;68.57;32.73;;;;;;;4.45;70.63;95638.56;5069950;28;20200;-67
2020/12/09 03:05:24;;;;;;;74.50;32.07;;;;;;;4.67;69.99;95639.81;5069521;28;20182;-65
2020/12/09 03:07:50;;;;;;;64.10;31.80;;;;;;;4.74;69.04;95648.63;5070175;28;20265;-66
2020/12/09 03:10:15;;;;;;;64.77;31.77;;;;;;;4.55;68.76;95641.84;5066727;28;20202;-67
2020/12/09 03:12:41;;;;;;;81.40;33.30;;;;;;;4.32;69.85;95638.94;5069114;28;20187;-65
2020/12/09 03:15:07;;;;;;;65.47;33.03;;;;;;;4.24;70.56;95644.06;5054514;28;20212;-65
2020/12/09 03:17:32;;;;;;;63.27;31.53;;;;;;;4.18;70.50;95644.66;5061281;28;20209;-66
2020/12/09 03:19:58;;;;;;;69.90;31.60;;;;;;;4.29;70.10;95641.81;5057731;28;20388;-66
2020/12/09 03:22:24;;;;;;;64.57;32.20;;;;;;;4.07;70.44;95649.13;5050902;28;20195;-66
2020/12/09 03:24:49;;;;;;;63.00;31.03;;;;;;;4.17;70.55;95656.00;5068171;28;20194;-67
2020/12/09 03:27:15;;;;;;;65.67;33.00;;;;;;;4.15;70.97;95654.41;5067218;28;20257;-65
2020/12/09 03:29:41;;;;;;;71.97;33.77;;;;;;;4.23;70.54;95658.81;5068425;28;20198;-66
2020/12/09 03:32:07;;;;;;;75.27;34.53;;;;;;;4.06;71.20;95663.06;5074719;28;20615;-66
2020/12/09 03:34:32;;;;;;;68.97;32.50;;;;;;;4.11;71.14;95658.25;5075519;28;20301;-64
2020/12/09 03:36:58;;;;;;;84.13;34.20;;;;;;;4.17;70.39;95656.84;5073914;28;20432;-66
2020/12/09 03:39:24;;;;;;;75.37;34.47;;;;;;;3.99;71.78;95657.66;5074861;28;20182;-65
2020/12/09 03:41:49;;;;;;;76.23;35.83;;;;;;;4.13;70.99;95653.72;5074875;28;20193;-66
2020/12/09 03:44:15;;;;;;;70.20;34.27;;;;;;;4.40;70.32;95659.78;5075734;28;20175;-66
2020/12/09 03:46:41;;;;;;;70.40;33.67;;;;;;;4.38;70.39;95661.69;5071337;28;20189;-65
2020/12/09 03:49:06;;;;;;;61.50;31.47;;;;;;;4.46;69.40;95664.34;5074896;28;20179;-66
2020/12/09 03:51:32;;;;;;;71.13;33.80;;;;;;;4.27;71.16;95659.34;5074030;28;20199;-65
2020/12/09 03:53:58;;;;;;;74.33;34.87;;;;;;;4.45;70.50;95660.09;5057852;28;20685;-67
2020/12/09 03:56:24;;;;;;;83.03;36.23;;;;;;;4.43;70.42;95661.25;5073666;28;20182;-67
2020/12/09 03:58:49;;;;;;;70.07;34.07;;;;;;;3.94;71.41;95657.28;5073623;28;20331;-67
2020/12/09 04:01:15;;;;;;;72.27;36.10;;;;;;;3.78;72.30;95647.56;5073904;28;20206;-66
2020/12/09 04:03:41;;;;;;;74.30;34.30;;;;;;;4.01;72.72;95641.97;5054168;28;20183;-66
2020/12/09 04:06:06;;;;;;;71.67;34.17;;;;;;;3.72;72.79;95639.59;5072777;28;20261;-67
2020/12/09 04:08:32;;;;;;;70.90;33.57;;;;;;;3.59;73.56;95638.16;5068351;28;20179;-64
2020/12/09 04:10:58;;;;;;;69.57;33.03;;;;;;;3.72;73.76;95635.22;5071971;28;20736;-65
2020/12/09 04:13:23;;;;;;;64.17;33.20;;;;;;;3.92;73.00;95646.25;5073070;28;20289;-63
2020/12/09 04:15:49;;;;;;;66.50;33.20;;;;;;;3.63;73.74;95647.28;5072003;28;20214;-66
2020/12/09 04:18:15;;;;;;;73.07;34.80;;;;;;;4.12;71.92;95653.84;5073173;28;20641;-65
2020/12/09 04:20:40;;;;;;;108.87;38.57;;;;;;;3.81;72.82;95660.25;5073157;28;20218;-67
2020/12/09 04:23:06;;;;;;;106.60;38.50;;;;;;;3.77;73.45;95658.09;5071322;28;20257;-65
2020/12/09 04:25:32;;;;;;;83.90;36.07;;;;;;;3.89;73.34;95656.13;5073345;28;20213;-65
2020/12/09 04:27:58;;;;;;;116.23;40.10;;;;;;;3.64;74.11;95655.88;5072839;28;20193;-64
2020/12/09 04:30:23;;;;;;;122.27;40.20;;;;;;;3.70;73.87;95657.88;5073107;28;20214;-66
2020/12/09 04:32:49;;;;;;;80.90;34.90;;;;;;;3.50;74.57;95663.19;5067003;28;20214;-66
2020/12/09 04:35:15;;;;;;;73.27;33.40;;;;;;;3.72;74.15;95661.13;5072769;28;20198;-65
2020/12/09 04:37:41;;;;;;;70.53;33.90;;;;;;;3.73;73.56;95656.75;5072975;28;20182;-65
2020/12/09 04:40:06;;;;;;;66.47;32.53;;;;;;;3.71;73.80;95651.72;5073042;28;20221;-66
2020/12/09 04:42:32;;;;;;;70.50;33.53;;;;;;;3.94;72.80;95670.25;5072240;28;20435;-66
2020/12/09 04:44:58;;;;;;;99.87;40.10;;;;;;;3.83;72.86;95657.53;5072477;28;20441;-67
2020/12/09 04:47:28;;;;;;;91.23;35.87;;;;;;;4.02;73.16;95663.50;5072853;28;20554;-66
2020/12/09 04:50:08;;;;;;;74.07;34.33;;;;;;;4.21;72.34;95673.72;5072164;28;20209;-66
2020/12/09 04:52:42;;;;;;;83.20;34.00;;;;;;;4.09;72.00;95675.72;5072706;28;20582;-66
2020/12/09 04:55:10;;;;;;;82.23;34.50;;;;;;;3.89;72.70;95680.25;5055879;28;20424;-66
2020/12/09 04:57:40;;;;;;;66.63;31.57;;;;;;;4.03;72.32;95678.94;5072606;28;20424;-67
2020/12/09 05:00:11;;;;;;;67.17;31.77;;;;;;;4.18;72.16;95686.16;5059989;28;20480;-66
2020/12/09 05:02:43;;;;;;;67.50;33.50;;;;;;;4.13;72.79;95687.44;5048892;28;20458;-65
2020/12/09 05:05:11;;;;;;;65.10;32.70;;;;;;;4.12;71.68;95688.41;5056006;28;20413;-66
2020/12/09 05:07:37;;;;;;;71.00;33.40;;;;;;;4.18;71.85;95692.16;5071216;28;20420;-68
2020/12/09 05:10:13;;;;;;;69.20;33.67;;;;;;;4.11;72.43;95694.53;5072178;28;20455;-67
2020/12/09 05:12:48;;;;;;;66.27;33.30;;;;;;;4.30;71.70;95695.34;5071576;28;20450;-66
2020/12/09 05:15:17;;;;;;;67.97;34.03;;;;;;;3.93;72.48;95694.56;5057504;28;20915;-67
2020/12/09 05:18:07;;;;;;;59.67;32.37;;;;;;;4.05;71.93;95705.50;5073072;28;20421;-66
2020/12/09 05:20:40;;;;;;;64.80;31.90;;;;;;;4.15;71.65;95703.66;5058436;28;20964;-67
2020/12/09 05:23:09;;;;;;;65.40;30.97;;;;;;;4.40;71.12;95716.84;5070595;28;20561;-66
2020/12/09 05:25:37;;;;;;;58.57;30.20;;;;;;;4.46;70.58;95716.22;5073395;28;20435;-66
2020/12/09 05:28:03;;;;;;;61.03;29.40;;;;;;;4.56;70.55;95725.69;5072862;28;20425;-66
2020/12/09 05:30:47;;;;;;;73.03;31.20;;;;;;;4.53;70.43;95726.00;5071090;28;20447;-66
2020/12/09 05:33:17;;;;;;;62.23;30.60;;;;;;;4.46;70.80;95724.00;5057258;28;20463;-67
2020/12/09 05:35:55;;;;;;;59.90;30.00;;;;;;;4.65;70.56;95727.41;5067281;28;20532;-66
2020/12/09 05:38:20;;;;;;;64.20;31.00;;;;;;;4.43;69.86;95726.88;5059060;28;20435;-66
2020/12/09 05:40:47;;;;;;;64.73;30.70;;;;;;;4.18;70.21;95732.84;5071833;28;20440;-66
2020/12/09 05:43:13;;;;;;;61.73;30.23;;;;;;;4.26;70.44;95725.16;5071958;28;20166;-64
2020/12/09 05:45:40;;;;;;;61.47;31.17;;;;;;;4.12;71.13;95722.09;5071626;28;20452;-66
2020/12/09 05:48:13;;;;;;;68.53;31.70;;;;;;;3.77;72.55;95717.69;5071635;28;20423;-66
2020/12/09 05:50:58;;;;;;;65.17;30.80;;;;;;;3.58;73.50;95716.03;5071885;28;20795;-66
2020/12/09 05:53:31;;;;;;;57.87;29.00;;;;;;;3.42;74.63;95717.47;5064043;28;20456;-67
2020/12/09 05:56:09;;;;;;;57.53;28.77;;;;;;;3.63;74.21;95713.84;5071824;28;20436;-67
2020/12/09 05:58:34;;;;;;;76.87;31.70;;;;;;;3.43;74.52;95707.94;5072035;28;20456;-67
2020/12/09 06:01:23;;;;;;;70.10;32.17;;;;;;;3.47;74.48;95715.28;5069525;28;20958;-65
2020/12/09 06:03:50;;;;;;;68.43;29.50;;;;;;;3.32;75.46;95721.91;5039245;28;20180;-66
2020/12/09 06:06:28;;;;;;;71.57;32.17;;;;;;;3.34;74.92;95714.81;5072151;28;20420;-65
2020/12/09 06:08:55;;;;;;;75.20;32.37;;;;;;;3.36;75.35;95733.59;5065016;28;20423;-64
2020/12/09 06:11:32;;;;;;;61.50;31.07;;;;;;;3.33;75.36;95739.06;5072307;28;20438;-64
2020/12/09 06:14:00;;;;;;;74.80;32.20;;;;;;;3.51;74.86;95742.53;5072094;28;20456;-64
2020/12/09 06:16:26;;;;;;;69.53;32.83;;;;;;;3.39;75.01;95738.50;5072227;28;20442;-65
2020/12/09 06:18:56;;;;;;;66.60;32.57;;;;;;;3.42;75.09;95743.38;5071727;28;20945;-65
2020/12/09 06:21:25;;;;;;;68.87;32.27;;;;;;;3.41;75.04;95730.59;5071521;28;20911;-65
2020/12/09 06:23:54;;;;;;;70.50;31.37;;;;;;;3.29;74.88;95737.72;5071570;28;20421;-66
2020/12/09 06:26:20;;;;;;;71.90;31.40;;;;;;;3.53;75.31;95743.19;5072109;28;20424;-66
2020/12/09 06:28:48;;;;;;;68.23;31.70;;;;;;;3.65;74.49;95745.59;5070097;28;20424;-65
2020/12/09 06:31:24;;;;;;;62.50;30.33;;;;;;;3.62;74.25;95744.09;5071296;28;20484;-64
2020/12/09 06:33:54;;;;;;;64.20;31.53;;;;;;;3.47;75.11;95746.38;5055534;28;20465;-66
2020/12/09 06:36:29;;;;;;;67.70;31.30;;;;;;;3.38;75.35;95742.06;5072253;28;20413;-66
2020/12/09 06:39:30;;;;;;;78.87;33.17;;;;;;;3.51;74.89;95741.72;5067605;28;20477;-66
2020/12/09 06:41:58;;;;;;;75.70;33.53;;;;;;;3.33;75.89;95737.31;5068971;28;20865;-66
2020/12/09 06:44:29;;;;;;;74.70;32.67;;;;;;;3.65;74.82;95737.84;5068974;28;20904;-65
2020/12/09 06:46:55;;;;;;;85.07;33.53;;;;;;;3.64;74.59;95741.38;5052762;28;20435;-66
2020/12/09 06:49:31;;;;;;;76.07;34.13;;;;;;;3.56;75.12;95755.06;5069170;28;20467;-66
2020/12/09 06:51:58;;;;;;;74.17;34.17;;;;;;;3.73;74.27;95748.28;5068088;28;20490;-66
2020/12/09 06:54:50;;;;;;;71.30;31.53;;;;;;;3.44;74.77;95751.81;5069152;28;20464;-66
2020/12/09 06:57:37;;;;;;;69.13;32.70;;;;;;;3.62;74.85;95751.06;5066091;28;20432;-66
2020/12/09 07:00:19;;;;;;;64.90;31.00;;;;;;;3.72;74.24;95764.78;5061340;28;20464;-68
2020/12/09 07:02:50;;;;;;;71.00;33.20;;;;;;;3.55;74.39;95766.38;5061867;28;20520;-67
2020/12/09 07:05:20;;;;;;;73.23;32.33;;;;;;;3.43;75.59;95765.75;5057230;28;20421;-67
2020/12/09 07:07:50;;;;;;;76.23;33.67;;;;;;;3.72;74.86;95774.34;5073416;28;20504;-66
2020/12/09 07:10:19;;;;;;;65.80;31.90;;;;;;;3.44;74.52;95780.31;5069519;28;20861;-67
2020/12/09 07:12:45;;;;;;;73.63;33.50;;;;;;;3.65;75.05;95784.47;5072126;28;20427;-66
2020/12/09 07:15:11;;;;;;;69.90;31.80;;;;;;;3.92;73.81;95781.06;5071340;28;20934;-66
2020/12/09 07:17:37;;;;;;;66.00;32.13;;;;;;;3.72;74.71;95788.13;5075393;28;20424;-66
2020/12/09 07:20:03;;;;;;;73.87;32.63;;;;;;;3.69;74.34;95789.22;5073240;28;20207;-67
2020/12/09 07:22:29;;;;;;;68.90;34.10;;;;;;;3.80;74.06;95800.34;5073436;28;20182;-66
2020/12/09 07:24:55;;;;;;;74.67;34.57;;;;;;;3.89;73.87;95790.91;5071516;28;20853;-65
2020/12/09 07:27:24;;;;;;;71.90;33.33;;;;;;;3.98;72.88;95802.97;5061553;28;20186;-66
2020/12/09 07:29:53;;;;;;;67.57;32.80;;;;;;;3.99;72.85;95807.22;5069030;28;20947;-64
2020/12/09 07:32:21;;;;;;;70.93;33.97;;;;;;;3.88;73.75;95803.03;5074928;28;20421;-65
2020/12/09 07:35:00;;;;;;;69.13;32.70;;;;;;;3.62;73.99;95815.84;5057129;28;20517;-66
2020/12/09 07:37:29;;;;;;;66.37;32.93;;;;;;;3.39;75.39;95811.03;5074420;28;20511;-65
2020/12/09 07:39:58;;;;;;;79.27;32.23;;;;;;;3.97;74.27;95809.13;5057742;28;20480;-65
2020/12/09 07:42:24;;;;;;;76.23;32.90;;;;;;;3.67;74.71;95811.88;5074695;28;20460;-66
2020/12/09 07:44:51;;;;;;;70.23;32.63;;;;;;;3.88;74.13;95810.00;5080199;28;20436;-67
2020/12/09 07:47:21;;;;;;;71.47;31.90;;;;;;;3.65;74.28;95806.00;5081632;28;20420;-65
2020/12/09 07:49:49;;;;;;;74.47;34.70;;;;;;;3.53;74.42;95810.53;5045560;28;20469;-66
2020/12/09 07:52:23;;;;;;;72.30;33.83;;;;;;;3.54;75.25;95809.59;5043849;28;20434;-66
2020/12/09 07:54:52;;;;;;;86.03;35.67;;;;;;;3.73;74.66;95813.06;5051564;28;20455;-65
2020/12/09 07:57:18;;;;;;;76.90;35.10;;;;;;;3.42;75.29;95818.50;5058894;28;20521;-64
2020/12/09 07:59:43;;;;;;;71.10;34.87;;;;;;;3.47;75.40;95813.72;5075666;28;20432;-65
2020/12/09 08:02:20;;;;;;;75.73;34.00;;;;;;;3.57;75.28;95820.63;5059150;28;20690;-65
2020/12/09 08:05:04;;;;;;;75.40;35.37;;;;;;;3.52;74.91;95827.06;5022404;28;20541;-66
2020/12/09 08:07:30;;;;;;;71.30;33.53;;;;;;;3.65;74.57;95825.94;5075376;28;20408;-64
2020/12/09 08:10:06;;;;;;;74.30;34.80;;;;;;;3.64;74.13;95824.31;5066104;28;20448;-66
2020/12/09 08:12:38;;;;;;;72.57;32.53;;;;;;;3.93;74.33;95833.69;5064587;28;20217;-65
2020/12/09 08:15:06;;;;;;;70.87;33.37;;;;;;;3.96;73.27;95836.84;5074237;28;20437;-66
2020/12/09 08:17:33;;;;;;;70.10;33.00;;;;;;;4.02;73.32;95837.19;5072779;28;20428;-66
2020/12/09 08:20:03;;;;;;;61.37;31.27;;;;;;;3.76;74.15;95836.13;5047628;28;20461;-65
2020/12/09 08:22:30;;;;;;;62.97;31.73;;;;;;;3.69;74.48;95840.22;5064634;28;20429;-66
2020/12/09 08:25:05;;;;;;;66.57;32.53;;;;;;;3.94;73.88;95850.88;5071994;28;20454;-68
2020/12/09 08:27:45;;;;;;;62.17;29.53;;;;;;;3.76;74.27;95849.06;5063680;28;20416;-68
2020/12/09 08:30:16;;;;;;;59.87;30.30;;;;;;;3.68;74.84;95843.75;5053372;28;20456;-68
2020/12/09 08:32:54;;;;;;;62.13;31.20;;;;;;;3.89;73.78;95842.75;5073403;28;20463;-68
2020/12/09 08:35:19;;;;;;;66.97;31.47;;;;;;;3.67;74.48;95857.69;5057317;28;20421;-68
2020/12/09 08:37:45;;;;;;;67.77;32.90;;;;;;;4.09;73.11;95864.19;5070052;28;20428;-68
2020/12/09 08:40:11;;;;;;;94.90;39.60;;;;;;;3.74;74.37;95860.50;5073083;28;20209;-67
2020/12/09 08:42:37;;;;;;;104.77;37.83;;;;;;;3.96;73.52;95872.31;5073446;28;20191;-67
2020/12/09 08:45:03;;;;;;;71.67;34.30;;;;;;;4.18;72.47;95868.50;5073157;28;20210;-67
2020/12/09 08:47:29;;;;;;;61.30;30.77;;;;;;;4.00;72.70;95877.06;5072425;28;20691;-67
2020/12/09 08:49:55;;;;;;;79.37;33.70;;;;;;;3.92;73.28;95870.94;5071548;28;20444;-68
2020/12/09 08:52:21;;;;;;;69.30;32.70;;;;;;;3.88;73.70;95877.38;5071002;28;20193;-68
2020/12/09 08:54:46;;;;;;;87.23;36.57;;;;;;;3.81;73.76;95877.94;5069616;28;20289;-66
2020/12/09 08:57:12;;;;;;;79.03;34.23;;;;;;;4.03;73.52;95870.78;5073326;28;20493;-68
2020/12/09 08:59:38;;;;;;;77.83;34.07;;;;;;;4.03;74.06;95869.94;5072891;28;20186;-68
2020/12/09 09:02:03;;;;;;;83.37;34.40;;;;;;;3.94;73.44;95874.22;5050637;28;20198;-69
2020/12/09 09:04:33;;;;;;;74.07;36.73;;;;;;;3.84;73.65;95871.69;5045822;28;20187;-67
2020/12/09 09:06:58;;;;;;;62.20;31.57;;;;;;;4.09;73.34;95875.38;5070571;28;20186;-68
2020/12/09 09:09:24;;;;;;;66.50;32.00;;;;;;;4.01;73.94;95872.69;5069416;28;20507;-68
2020/12/09 09:11:50;;;;;;;71.20;33.87;;;;;;;4.22;72.58;95871.63;5072959;28;20217;-67
2020/12/09 09:14:15;;;;;;;68.50;34.20;;;;;;;4.06;72.79;95874.84;5073287;28;20573;-68
2020/12/09 09:16:41;;;;;;;71.43;33.53;;;;;;;3.98;72.99;95876.38;5073180;28;20186;-68
2020/12/09 09:19:07;;;;;;;67.93;31.70;;;;;;;3.89;73.46;95879.03;5060390;28;20665;-67
2020/12/09 09:21:33;;;;;;;67.30;33.40;;;;;;;3.71;74.07;95874.59;5068042;28;20445;-68
2020/12/09 09:23:59;;;;;;;74.00;36.10;;;;;;;3.73;75.05;95870.06;5069514;28;20178;-68
2020/12/09 09:26:27;;;;;;;77.97;37.10;;;;;;;3.86;74.18;95868.94;5070514;28;20421;-68
2020/12/09 09:28:52;;;;;;;68.13;34.37;;;;;;;3.66;74.84;95874.19;5070021;28;20193;-69
2020/12/09 09:31:18;;;;;;;69.63;34.30;;;;;;;3.58;75.18;95868.91;5073001;28;20441;-69
2020/12/09 09:33:44;;;;;;;80.03;37.47;;;;;;;3.52;75.85;95868.53;5056010;28;20203;-70
2020/12/09 09:36:09;;;;;;;82.17;39.87;;;;;;;3.37;76.41;95869.91;5063086;28;20266;-69
2020/12/09 09:38:35;;;;;;;78.60;38.50;;;;;;;3.54;75.89;95865.78;5071112;28;20226;-68
2020/12/09 09:41:01;;;;;;;81.37;38.27;;;;;;;3.60;75.64;95865.19;5072418;28;20566;-69
2020/12/09 09:43:26;;;;;;;84.63;37.60;;;;;;;3.65;74.84;95863.00;5072283;28;20214;-67
2020/12/09 09:45:52;;;;;;;87.27;38.77;;;;;;;3.93;75.57;95865.63;5072202;28;20202;-69
2020/12/09 09:48:18;;;;;;;84.67;37.63;;;;;;;3.66;74.85;95869.00;5072077;28;20182;-68
2020/12/09 09:50:43;;;;;;;85.87;38.07;;;;;;;3.88;75.23;95867.81;5071054;28;20276;-69
2020/12/09 09:53:09;;;;;;;82.47;39.20;;;;;;;3.91;74.94;95874.50;5068091;28;20206;-67
2020/12/09 09:55:36;;;;;;;85.30;40.60;;;;;;;3.62;75.81;95867.66;5071403;28;20182;-67
2020/12/09 09:58:02;;;;;;;103.07;42.23;;;;;;;4.04;74.28;95877.56;5072204;28;20552;-68
2020/12/09 10:00:27;;;;;;;84.50;39.13;;;;;;;3.82;75.12;95869.22;5072025;28;20506;-69
2020/12/09 10:02:53;;;;;;;272.13;68.93;;;;;;;3.62;76.25;95872.84;5066676;28;20214;-68
2020/12/09 10:05:19;;;;;;;206.97;55.27;;;;;;;3.58;76.74;95871.50;5063957;28;20194;-67
2020/12/09 10:07:44;;;;;;;341.90;78.03;;;;;;;4.02;74.75;95874.34;5044354;28;20175;-68
2020/12/09 10:10:10;;;;;;;136.23;44.27;;;;;;;3.91;75.45;95882.28;5047506;28;20199;-67
2020/12/09 10:12:36;;;;;;;85.13;36.67;;;;;;;4.15;74.00;95881.75;5042887;28;20281;-67
2020/12/09 10:15:02;;;;;;;75.17;36.30;;;;;;;4.04;74.13;95887.13;5028938;28;20457;-69
2020/12/09 10:17:28;;;;;;;71.93;33.70;;;;;;;4.03;74.35;95881.16;5048901;28;20584;-68
2020/12/09 10:19:53;;;;;;;72.07;35.13;;;;;;;4.20;73.34;95881.31;5045306;28;20256;-69
2020/12/09 10:22:20;;;;;;;173.33;50.53;;;;;;;4.09;73.81;95890.13;5044727;28;20175;-67
2020/12/09 10:24:45;;;;;;;213.33;56.80;;;;;;;4.36;73.81;95883.28;5045940;28;20216;-69
2020/12/09 10:27:11;;;;;;;94.90;37.23;;;;;;;4.20;73.48;95883.91;5042437;28;20460;-67
2020/12/09 10:29:37;;;;;;;77.77;35.83;;;;;;;4.20;74.26;95876.13;5044701;28;20604;-69
2020/12/09 10:32:02;;;;;;;74.83;35.43;;;;;;;4.50;72.89;95872.41;5046434;28;20183;-69
2020/12/09 10:34:28;;;;;;;72.37;34.80;;;;;;;4.40;72.33;95874.25;5047319;28;20273;-69
2020/12/09 10:36:54;;;;;;;66.53;33.30;;;;;;;4.64;72.66;95868.50;5047371;28;20194;-69
2020/12/09 10:39:22;;;;;;;63.93;31.83;;;;;;;4.66;71.99;95866.56;5045353;28;20179;-69
2020/12/09 10:41:48;;;;;;;59.37;33.40;;;;;;;4.83;71.76;95870.13;5047965;28;20560;-69
2020/12/09 10:44:14;;;;;;;66.70;33.30;;;;;;;4.83;71.03;95875.31;5049561;28;20440;-68
2020/12/09 10:46:40;;;;;;;60.23;32.07;;;;;;;4.88;72.05;95875.69;5061212;28;20415;-67
2020/12/09 10:49:08;;;;;;;66.10;33.77;;;;;;;4.75;70.93;95870.88;5050311;28;20182;-67
2020/12/09 10:51:34;;;;;;;63.93;34.00;;;;;;;4.30;72.36;95877.72;5048731;28;20520;-69
2020/12/09 10:54:00;;;;;;;68.30;34.13;;;;;;;4.15;73.57;95879.16;5050103;28;20457;-69
2020/12/09 10:56:27;;;;;;;65.87;33.20;;;;;;;4.43;72.80;95866.97;5047455;28;20946;-68
2020/12/09 10:58:54;;;;;;;66.37;34.40;;;;;;;4.21;73.21;95863.03;5033433;28;20241;-69
2020/12/09 11:01:20;;;;;;;63.73;33.13;;;;;;;4.21;73.93;95870.00;5049778;28;20441;-69
2020/12/09 11:03:46;;;;;;;65.33;32.80;;;;;;;4.33;74.07;95863.63;5050898;28;20453;-68
2020/12/09 11:06:12;;;;;;;54.47;30.73;;;;;;;3.88;75.00;95862.66;5047098;28;20547;-68
2020/12/09 11:08:38;;;;;;;60.80;33.17;;;;;;;3.66;75.69;95863.81;5049371;28;20423;-68
2020/12/09 11:11:04;;;;;;;65.77;33.17;;;;;;;3.76;75.84;95858.59;5050360;28;20455;-67
2020/12/09 11:13:30;;;;;;;61.20;31.60;;;;;;;3.58;76.53;95854.19;5045229;28;20246;-68
2020/12/09 11:15:55;;;;;;;77.23;34.70;;;;;;;3.79;76.28;95853.94;5048945;28;20483;-70
2020/12/09 11:18:22;;;;;;;75.03;33.40;;;;;;;3.89;75.36;95850.53;5050380;28;20186;-69
2020/12/09 11:20:48;;;;;;;72.40;33.80;;;;;;;3.48;76.88;95854.22;5050042;28;20211;-69
2020/12/09 11:23:14;;;;;;;59.53;31.67;;;;;;;3.51;77.46;95840.97;5048798;28;20437;-69
2020/12/09 11:25:39;;;;;;;63.13;31.80;;;;;;;3.49;77.04;95842.88;5047659;28;20187;-67